createdAt,value
2022-07-29T00:01:53.579Z,18.57
2022-07-29T00:04:21.690Z,18.56
2022-07-29T00:06:49.279Z,18.52
2022-07-29T00:09:16.766Z,18.52
2022-07-29T00:11:44.436Z,18.51
2022-07-29T00:14:11.751Z,18.46
2022-07-29T00:16:39.378Z,18.40
2022-07-29T00:19:07.801Z,18.40
2022-07-29T00:21:35.323Z,18.46
2022-07-29T00:24:02.937Z,18.45
2022-07-29T00:26:32.826Z,18.43
2022-07-29T00:29:32.429Z,18.43
2022-07-29T00:31:49.631Z,18.36
2022-07-29T00:34:35.782Z,18.29
2022-07-29T00:37:03.822Z,18.27
2022-07-29T00:39:31.058Z,18.25
2022-07-29T00:41:58.297Z,18.21
2022-07-29T00:44:25.767Z,18.20
2022-07-29T00:46:53.217Z,18.20
2022-07-29T00:49:20.644Z,18.20
2022-07-29T00:51:50.973Z,18.19
2022-07-29T00:54:18.896Z,18.13
2022-07-29T00:56:46.530Z,18.10
2022-07-29T00:59:14.017Z,18.19
2022-07-29T01:01:41.462Z,18.07
2022-07-29T01:04:08.873Z,18.03
2022-07-29T01:06:37.074Z,18.06
2022-07-29T01:09:04.758Z,17.98
2022-07-29T01:11:33.135Z,17.97
2022-07-29T01:14:02.209Z,17.93
2022-07-29T01:16:36.983Z,17.83
2022-07-29T01:19:39.999Z,17.80
2022-07-29T01:22:36.260Z,17.91
2022-07-29T01:25:56.080Z,17.84
2022-07-29T01:29:07.543Z,17.83
2022-07-29T01:31:59.153Z,17.80
2022-07-29T01:34:45.205Z,17.78
2022-07-29T01:37:33.339Z,17.77
2022-07-29T01:40:04.614Z,17.71
2022-07-29T01:42:44.533Z,17.70
2022-07-29T01:45:40.046Z,17.64
2022-07-29T01:48:50.061Z,17.58
2022-07-29T01:51:55.729Z,17.63
2022-07-29T01:54:39.982Z,17.72
2022-07-29T01:57:12.352Z,17.65
2022-07-29T01:59:44.598Z,17.67
2022-07-29T02:02:15.306Z,17.65
2022-07-29T02:04:49.556Z,17.65
2022-07-29T02:07:22.303Z,17.66
2022-07-29T02:09:51.894Z,17.68
2022-07-29T02:12:21.590Z,17.67
2022-07-29T02:14:53.929Z,17.63
2022-07-29T02:17:52.665Z,17.64
2022-07-29T02:20:20.485Z,17.67
2022-07-29T02:22:50.811Z,17.60
2022-07-29T02:25:19.745Z,17.57
2022-07-29T02:27:49.324Z,17.64
2022-07-29T02:30:16.958Z,17.61
2022-07-29T02:32:47.048Z,17.55
2022-07-29T02:35:17.070Z,17.54
2022-07-29T02:38:07.019Z,17.54
2022-07-29T02:40:38.983Z,17.49
2022-07-29T02:43:09.271Z,17.51
2022-07-29T02:45:36.543Z,17.53
2022-07-29T02:48:14.299Z,17.55
2022-07-29T02:50:52.943Z,17.58
2022-07-29T02:53:26.210Z,17.52
2022-07-29T02:56:02.937Z,17.54
2022-07-29T02:58:43.761Z,17.59
2022-07-29T03:01:33.341Z,17.61
2022-07-29T03:04:06.042Z,17.72
2022-07-29T03:06:37.950Z,17.75
2022-07-29T03:09:12.869Z,17.86
2022-07-29T03:11:49.308Z,17.84
2022-07-29T03:14:24.058Z,17.91
2022-07-29T03:16:52.818Z,17.90
2022-07-29T03:19:21.602Z,17.86
2022-07-29T03:21:49.315Z,17.86
2022-07-29T03:24:33.126Z,17.94
2022-07-29T03:27:01.483Z,17.94
2022-07-29T03:29:32.905Z,17.97
2022-07-29T03:32:07.281Z,17.93
2022-07-29T03:34:38.127Z,17.96
2022-07-29T03:37:07.477Z,17.94
2022-07-29T03:39:42.482Z,17.96
2022-07-29T03:42:15.129Z,17.87
2022-07-29T03:44:46.758Z,17.94
2022-07-29T03:47:17.652Z,17.99
2022-07-29T03:49:50.887Z,18.04
2022-07-29T03:52:19.020Z,18.12
2022-07-29T03:54:46.546Z,18.08
2022-07-29T03:57:17.150Z,18.22
2022-07-29T03:59:45.466Z,18.27
2022-07-29T04:02:14.952Z,18.38
2022-07-29T04:04:45.066Z,18.51
2022-07-29T04:07:16.748Z,18.55
2022-07-29T04:10:02.425Z,18.60
2022-07-29T04:12:30.067Z,18.69
2022-07-29T04:14:57.319Z,18.71
2022-07-29T04:17:24.518Z,18.86
2022-07-29T04:19:51.970Z,18.92
2022-07-29T04:22:19.176Z,18.93
2022-07-29T04:24:46.503Z,18.97
2022-07-29T04:27:14.120Z,19.02
2022-07-29T04:29:56.013Z,19.07
2022-07-29T04:32:23.938Z,19.21
2022-07-29T04:34:51.195Z,19.29
2022-07-29T04:37:18.576Z,19.36
2022-07-29T04:39:46.042Z,19.37
2022-07-29T04:42:13.469Z,19.39
2022-07-29T04:44:42.874Z,19.48
2022-07-29T04:47:10.846Z,19.49
2022-07-29T04:49:40.979Z,19.53
2022-07-29T04:52:08.392Z,19.47
2022-07-29T04:54:35.864Z,19.44
2022-07-29T04:57:03.383Z,19.48
2022-07-29T04:59:30.683Z,19.55
2022-07-29T05:01:58.406Z,19.62
2022-07-29T05:04:25.680Z,19.75
2022-07-29T05:06:52.987Z,19.88
2022-07-29T05:09:20.446Z,19.93
2022-07-29T05:11:47.842Z,20.01
2022-07-29T05:14:15.317Z,20.06
2022-07-29T05:16:44.422Z,20.09
2022-07-29T05:19:14.395Z,20.08
2022-07-29T05:21:42.502Z,20.07
2022-07-29T05:24:09.960Z,20.17
2022-07-29T05:26:37.243Z,20.18
2022-07-29T05:29:04.539Z,20.25
2022-07-29T05:31:32.018Z,20.21
2022-07-29T05:33:59.261Z,20.30
2022-07-29T05:36:26.968Z,20.38
2022-07-29T05:38:54.442Z,20.43
2022-07-29T05:41:22.190Z,20.42
2022-07-29T05:43:49.620Z,20.54
2022-07-29T05:46:17.227Z,20.71
2022-07-29T05:48:44.641Z,20.81
2022-07-29T05:51:11.867Z,20.98
2022-07-29T05:53:39.361Z,21.08
2022-07-29T05:56:07.506Z,21.19
2022-07-29T05:58:34.887Z,21.33
2022-07-29T06:01:02.454Z,21.44
2022-07-29T06:03:30.288Z,21.50
2022-07-29T06:05:57.603Z,21.54
2022-07-29T06:08:25.047Z,21.56
2022-07-29T06:10:52.285Z,21.70
2022-07-29T06:13:19.638Z,21.79
2022-07-29T06:15:47.302Z,21.86
2022-07-29T06:18:14.676Z,21.98
2022-07-29T06:20:42.273Z,22.09
2022-07-29T06:23:11.047Z,22.15
2022-07-29T06:25:41.453Z,22.17
2022-07-29T06:28:08.652Z,22.29
2022-07-29T06:30:36.520Z,22.47
2022-07-29T06:33:04.992Z,22.71
2022-07-29T06:35:38.602Z,23.06
2022-07-29T06:38:33.728Z,23.55
2022-07-29T06:41:07.071Z,24.02
2022-07-29T06:43:50.651Z,24.17
2022-07-29T06:46:22.028Z,24.30
2022-07-29T06:48:50.617Z,24.29
2022-07-29T06:51:22.721Z,24.23
2022-07-29T06:54:00.004Z,24.37
2022-07-29T06:56:38.503Z,24.61
2022-07-29T06:59:12.294Z,24.71
2022-07-29T07:01:44.341Z,24.77
2022-07-29T07:04:12.819Z,24.65
2022-07-29T07:06:40.973Z,24.76
2022-07-29T07:09:08.471Z,24.72
2022-07-29T07:11:36.139Z,24.96
2022-07-29T07:14:04.372Z,25.05
2022-07-29T07:16:32.762Z,25.08
2022-07-29T07:19:00.935Z,25.23
2022-07-29T07:21:30.367Z,25.26
2022-07-29T07:23:58.975Z,25.40
2022-07-29T07:26:27.300Z,25.62
2022-07-29T07:28:54.520Z,25.78
2022-07-29T07:31:21.860Z,25.91
2022-07-29T07:33:49.567Z,26.03
2022-07-29T07:36:16.784Z,26.16
2022-07-29T07:38:43.976Z,26.25
2022-07-29T07:41:11.510Z,26.44
2022-07-29T07:43:38.932Z,26.60
2022-07-29T07:46:06.383Z,26.81
2022-07-29T07:48:35.884Z,27.05
2022-07-29T07:51:03.858Z,27.16
2022-07-29T07:53:31.716Z,27.25
2022-07-29T07:56:11.009Z,27.53
2022-07-29T07:58:40.036Z,28.06
2022-07-29T08:01:07.992Z,28.54
2022-07-29T08:03:35.563Z,28.92
2022-07-29T08:06:05.030Z,28.97
2022-07-29T08:08:32.778Z,28.72
2022-07-29T08:11:04.212Z,28.79
2022-07-29T08:13:34.292Z,28.64
2022-07-29T08:16:02.790Z,28.56
2022-07-29T08:18:32.317Z,28.37
2022-07-29T08:21:00.140Z,28.47
2022-07-29T08:23:32.935Z,28.45
2022-07-29T08:26:16.069Z,28.65
2022-07-29T08:28:50.509Z,28.72
2022-07-29T08:31:18.953Z,28.82
2022-07-29T08:33:46.304Z,28.79
2022-07-29T08:36:14.203Z,28.95
2022-07-29T08:38:41.718Z,28.96
2022-07-29T08:41:09.019Z,28.97
2022-07-29T08:43:38.574Z,29.03
2022-07-29T08:46:06.212Z,29.27
2022-07-29T08:48:34.808Z,29.47
2022-07-29T08:51:04.403Z,29.82
2022-07-29T08:53:33.353Z,30.12
2022-07-29T08:56:02.936Z,30.44
2022-07-29T08:58:36.831Z,30.79
2022-07-29T09:01:07.488Z,31.25
2022-07-29T09:03:42.654Z,31.59
2022-07-29T09:06:10.300Z,32.09
2022-07-29T09:08:37.537Z,32.27
2022-07-29T09:11:05.742Z,32.40
2022-07-29T09:13:33.459Z,32.39
2022-07-29T09:16:05.618Z,32.26
2022-07-29T09:18:39.055Z,32.26
2022-07-29T09:21:28.220Z,32.53
2022-07-29T09:24:14.907Z,32.68
2022-07-29T09:26:45.312Z,33.01
2022-07-29T09:29:18.838Z,33.01
2022-07-29T09:31:50.689Z,33.42
2022-07-29T09:34:26.135Z,36.27
2022-07-29T09:36:55.332Z,40.48
2022-07-29T09:39:46.716Z,43.11
2022-07-29T09:42:16.741Z,44.80
2022-07-29T09:44:51.046Z,48.79
2022-07-29T09:47:22.752Z,50.62
2022-07-29T09:50:01.093Z,53.04
2022-07-29T09:52:31.226Z,55.45
2022-07-29T09:55:13.638Z,56.20
2022-07-29T09:57:47.748Z,57.78
2022-07-29T10:00:20.477Z,57.08
2022-07-29T10:02:48.717Z,56.97
2022-07-29T10:05:35.972Z,58.19
2022-07-29T10:08:04.846Z,54.94
2022-07-29T10:10:37.770Z,52.67
2022-07-29T10:13:16.024Z,51.53
2022-07-29T10:15:47.443Z,51.36
2022-07-29T10:18:22.663Z,48.85
2022-07-29T10:20:50.420Z,47.04
2022-07-29T10:23:25.159Z,47.17
2022-07-29T10:25:53.244Z,48.28
2022-07-29T10:28:20.439Z,53.62
2022-07-29T10:30:51.591Z,56.67
2022-07-29T10:33:27.820Z,58.38
2022-07-29T10:36:57.294Z,58.89
2022-07-29T10:39:49.893Z,59.55
2022-07-29T10:42:34.101Z,60.06
2022-07-29T10:45:05.341Z,58.99
2022-07-29T10:47:35.126Z,56.10
2022-07-29T10:50:07.180Z,52.95
2022-07-29T10:52:53.806Z,49.88
2022-07-29T10:55:43.149Z,47.76
2022-07-29T10:58:18.889Z,46.45
2022-07-29T11:00:52.980Z,45.37
2022-07-29T11:03:49.378Z,43.78
2022-07-29T11:06:26.390Z,43.32
2022-07-29T11:09:20.173Z,42.33
2022-07-29T11:11:58.179Z,41.45
2022-07-29T11:15:07.153Z,40.59
2022-07-29T11:18:00.374Z,39.85
2022-07-29T11:20:57.692Z,39.03
2022-07-29T11:23:33.881Z,38.67
2022-07-29T11:26:12.828Z,38.33
2022-07-29T11:29:02.648Z,38.11
2022-07-29T11:31:56.769Z,37.98
2022-07-29T11:34:41.480Z,37.95
2022-07-29T11:37:12.404Z,38.09
2022-07-29T11:39:48.594Z,37.93
2022-07-29T11:42:28.472Z,38.21
2022-07-29T11:50:54.891Z,38.98
2022-07-29T11:53:22.510Z,38.80
2022-07-29T11:55:58.299Z,39.06
2022-07-29T11:58:27.287Z,39.32
2022-07-29T12:00:56.293Z,39.52
2022-07-29T12:03:35.303Z,39.29
2022-07-29T12:06:15.118Z,39.02
2022-07-29T12:07:03.750Z,38.41
2022-07-29T12:08:44.810Z,38.83
2022-07-29T12:11:22.787Z,38.41
2022-07-29T12:13:58.445Z,38.19
2022-07-29T12:16:38.108Z,38.02
2022-07-29T12:19:06.097Z,37.85
2022-07-29T12:21:56.938Z,37.71
2022-07-29T12:24:27.560Z,37.54
2022-07-29T12:26:58.537Z,37.49
2022-07-29T12:29:34.504Z,37.65
2022-07-29T12:32:14.708Z,37.75
2022-07-29T12:34:47.579Z,37.62
2022-07-29T12:37:15.046Z,37.60
2022-07-29T12:39:42.516Z,37.39
2022-07-29T12:42:18.523Z,37.18
2022-07-29T12:44:51.598Z,37.05
2022-07-29T12:47:21.875Z,36.99
2022-07-29T12:49:51.570Z,36.90
2022-07-29T12:52:29.799Z,36.89
2022-07-29T12:54:57.868Z,36.87
2022-07-29T12:57:26.228Z,36.98
2022-07-29T13:00:13.731Z,37.02
2022-07-29T13:02:43.674Z,37.39
2022-07-29T13:05:13.860Z,37.73
2022-07-29T13:07:55.642Z,37.95
2022-07-29T13:10:26.179Z,37.92
2022-07-29T13:13:14.160Z,37.79
2022-07-29T13:15:47.894Z,37.68
2022-07-29T13:18:39.917Z,37.49
2022-07-29T13:21:18.807Z,37.39
2022-07-29T13:23:46.281Z,37.44
2022-07-29T13:26:13.829Z,37.63
2022-07-29T13:28:44.127Z,37.89
2022-07-29T13:31:12.132Z,38.15
2022-07-29T13:33:39.603Z,38.35
2022-07-29T13:36:07.344Z,38.29
2022-07-29T13:38:35.097Z,38.27
2022-07-29T13:41:03.460Z,38.32
2022-07-29T13:43:30.733Z,38.01
2022-07-29T13:46:06.911Z,37.54
2022-07-29T13:48:34.793Z,37.49
2022-07-29T13:51:02.365Z,37.62
2022-07-29T13:53:29.775Z,37.49
2022-07-29T13:55:57.366Z,37.44
2022-07-29T13:58:24.813Z,37.30
2022-07-29T14:00:52.287Z,36.82
2022-07-29T14:03:21.327Z,36.62
2022-07-29T14:05:48.577Z,36.51
2022-07-29T14:08:16.218Z,36.14
2022-07-29T14:10:43.703Z,36.05
2022-07-29T14:13:24.557Z,35.76
2022-07-29T14:15:53.883Z,35.86
2022-07-29T14:18:21.181Z,35.62
2022-07-29T14:20:48.547Z,35.24
2022-07-29T14:23:16.409Z,34.77
2022-07-29T14:25:44.593Z,34.64
2022-07-29T14:28:14.684Z,34.74
2022-07-29T14:30:42.293Z,34.72
2022-07-29T14:33:09.571Z,34.55
2022-07-29T14:35:36.944Z,34.39
2022-07-29T14:38:04.679Z,33.92
2022-07-29T14:40:31.917Z,33.67
2022-07-29T14:42:59.117Z,33.68
2022-07-29T14:45:26.749Z,33.82
2022-07-29T14:47:57.224Z,33.73
2022-07-29T14:50:31.772Z,33.91
2022-07-29T14:53:01.842Z,34.04
2022-07-29T14:55:29.537Z,33.88
2022-07-29T14:58:07.729Z,33.93
2022-07-29T15:00:37.998Z,33.72
2022-07-29T15:03:06.400Z,33.81
2022-07-29T15:05:39.374Z,33.45
2022-07-29T15:08:06.675Z,33.01
2022-07-29T15:10:33.998Z,32.70
2022-07-29T15:13:01.471Z,32.20
2022-07-29T15:15:28.805Z,31.85
2022-07-29T15:17:56.308Z,31.52
2022-07-29T15:20:26.350Z,31.22
2022-07-29T15:22:54.414Z,31.03
2022-07-29T15:25:21.735Z,30.82
2022-07-29T15:27:52.762Z,30.65
2022-07-29T15:30:33.023Z,30.47
2022-07-29T15:33:04.288Z,30.22
2022-07-29T15:35:31.959Z,30.06
2022-07-29T15:37:59.739Z,29.98
2022-07-29T15:40:27.192Z,29.89
2022-07-29T15:42:55.063Z,29.88
2022-07-29T15:45:22.454Z,29.90
2022-07-29T15:47:50.025Z,29.96
2022-07-29T15:50:17.267Z,30.01
2022-07-29T15:52:44.591Z,30.06
2022-07-29T15:55:12.076Z,30.12
2022-07-29T15:57:40.968Z,30.17
2022-07-29T16:00:09.233Z,30.21
2022-07-29T16:02:36.844Z,30.27
2022-07-29T16:05:04.751Z,30.24
2022-07-29T16:07:37.955Z,30.18
2022-07-29T16:10:07.998Z,30.07
2022-07-29T16:12:35.424Z,29.94
2022-07-29T16:15:07.608Z,29.72
2022-07-29T16:17:38.090Z,29.51
2022-07-29T16:20:07.311Z,29.32
2022-07-29T16:22:35.587Z,28.92
2022-07-29T16:25:03.518Z,28.67
2022-07-29T16:27:35.525Z,28.38
2022-07-29T16:30:09.869Z,28.02
2022-07-29T16:32:37.810Z,27.97
2022-07-29T16:35:05.986Z,27.85
2022-07-29T16:37:35.584Z,27.74
2022-07-29T16:40:08.067Z,27.52
2022-07-29T16:42:47.583Z,27.34
2022-07-29T16:45:18.059Z,27.28
2022-07-29T16:47:49.043Z,27.24
2022-07-29T16:50:17.155Z,27.10
2022-07-29T16:52:44.472Z,27.14
2022-07-29T16:55:12.075Z,27.12
2022-07-29T16:57:39.436Z,27.06
2022-07-29T17:00:07.753Z,26.99
2022-07-29T17:02:35.404Z,26.79
2022-07-29T17:05:02.875Z,26.62
2022-07-29T17:07:30.292Z,26.56
2022-07-29T17:10:03.310Z,26.45
2022-07-29T17:12:32.500Z,26.40
2022-07-29T17:15:00.448Z,26.32
2022-07-29T17:17:39.531Z,26.29
2022-07-29T17:20:17.600Z,26.24
2022-07-29T17:22:45.214Z,26.17
2022-07-29T17:25:20.623Z,26.13
2022-07-29T17:27:51.048Z,26.12
2022-07-29T17:30:18.912Z,26.09
2022-07-29T17:32:46.294Z,26.07
2022-07-29T17:35:32.100Z,26.04
2022-07-29T17:37:59.501Z,25.92
2022-07-29T17:40:26.987Z,25.80
2022-07-29T17:42:54.316Z,25.75
2022-07-29T17:45:21.626Z,25.68
2022-07-29T17:47:49.120Z,25.59
2022-07-29T17:50:16.384Z,25.52
2022-07-29T17:52:43.683Z,25.47
2022-07-29T17:55:13.456Z,25.38
2022-07-29T17:57:40.731Z,25.32
2022-07-29T18:00:08.866Z,25.34
2022-07-29T18:02:37.781Z,25.22
2022-07-29T18:05:05.665Z,25.04
2022-07-29T18:07:33.074Z,25.01
2022-07-29T18:10:00.975Z,25.04
2022-07-29T18:12:28.466Z,25.05
2022-07-29T18:14:55.791Z,25.09
2022-07-29T18:17:23.374Z,25.10
2022-07-29T18:20:11.635Z,25.10
2022-07-29T18:22:39.112Z,24.96
2022-07-29T18:25:07.171Z,24.87
2022-07-29T18:27:34.529Z,24.80
2022-07-29T18:30:03.527Z,24.76
2022-07-29T18:32:32.244Z,24.74
2022-07-29T18:35:02.750Z,24.59
2022-07-29T18:38:01.917Z,24.41
2022-07-29T18:40:18.647Z,24.28
2022-07-29T18:42:46.118Z,24.16
2022-07-29T18:45:19.719Z,24.06
2022-07-29T18:47:49.437Z,23.89
2022-07-29T18:50:17.221Z,23.84
2022-07-29T18:52:46.458Z,23.79
2022-07-29T18:55:14.071Z,23.82
2022-07-29T18:57:54.062Z,23.82
2022-07-29T19:00:24.010Z,23.71
2022-07-29T19:02:52.710Z,23.66
2022-07-29T19:05:20.508Z,23.61
2022-07-29T19:07:48.212Z,23.62
2022-07-29T19:10:15.654Z,23.54
2022-07-29T19:12:43.208Z,23.51
2022-07-29T19:15:11.301Z,23.36
2022-07-29T19:17:39.181Z,23.26
2022-07-29T19:20:08.162Z,23.21
2022-07-29T19:22:35.749Z,23.17
2022-07-29T19:25:03.320Z,23.23
2022-07-29T19:27:30.672Z,23.24
2022-07-29T19:29:59.547Z,23.13
2022-07-29T19:32:27.420Z,23.08
2022-07-29T19:35:12.935Z,23.08
2022-07-29T19:37:40.559Z,23.06
2022-07-29T19:40:08.315Z,23.06
2022-07-29T19:42:35.603Z,23.02
2022-07-29T19:45:03.250Z,23.08
2022-07-29T19:47:30.547Z,23.10
2022-07-29T19:49:57.822Z,23.13
2022-07-29T19:52:25.335Z,23.21
2022-07-29T19:54:53.152Z,23.29
2022-07-29T19:57:20.477Z,23.35
2022-07-29T19:59:47.975Z,23.42
2022-07-29T20:02:15.532Z,23.49
2022-07-29T20:04:43.531Z,23.57
2022-07-29T20:07:11.650Z,23.62
2022-07-29T20:09:43.186Z,23.67
2022-07-29T20:12:11.862Z,23.68
2022-07-29T20:14:39.446Z,23.65
2022-07-29T20:17:06.729Z,23.65
2022-07-29T20:19:34.743Z,23.63
2022-07-29T20:22:02.605Z,23.57
2022-07-29T20:24:29.867Z,23.49
2022-07-29T20:26:57.472Z,23.45
2022-07-29T20:29:25.615Z,23.40
2022-07-29T20:31:56.573Z,23.42
2022-07-29T20:34:24.353Z,23.36
2022-07-29T20:36:52.118Z,23.25
2022-07-29T20:39:21.232Z,23.14
2022-07-29T20:41:49.440Z,23.14
2022-07-29T20:44:19.826Z,23.05
2022-07-29T20:46:48.877Z,23.08
2022-07-29T20:49:16.277Z,22.94
2022-07-29T20:51:44.167Z,22.96
2022-07-29T20:54:12.284Z,22.74
2022-07-29T20:56:41.686Z,22.75
2022-07-29T20:59:09.429Z,22.60
2022-07-29T21:01:36.947Z,22.61
2022-07-29T21:04:04.901Z,22.63
2022-07-29T21:06:32.456Z,22.55
2022-07-29T21:09:01.154Z,22.54
2022-07-29T21:11:44.357Z,22.44
2022-07-29T21:14:29.290Z,22.42
2022-07-29T21:16:57.112Z,22.38
2022-07-29T21:19:24.961Z,22.41
2022-07-29T21:21:52.426Z,22.36
2022-07-29T21:24:19.888Z,22.26
2022-07-29T21:27:11.064Z,22.29
2022-07-29T21:29:34.917Z,22.23
2022-07-29T21:32:02.436Z,22.18
2022-07-29T21:34:29.878Z,22.20
2022-07-29T21:36:57.409Z,22.14
2022-07-29T21:39:25.783Z,22.14
2022-07-29T21:41:53.983Z,22.18
2022-07-29T21:44:21.972Z,22.16
2022-07-29T21:46:50.003Z,22.13
2022-07-29T21:49:18.536Z,22.02
2022-07-29T21:51:46.065Z,22.04
2022-07-29T21:54:13.694Z,22.00
2022-07-29T21:56:41.420Z,21.94
2022-07-29T21:59:09.817Z,21.89
2022-07-29T22:01:40.310Z,21.82
2022-07-29T22:04:07.586Z,21.83
2022-07-29T22:06:35.035Z,21.82
2022-07-29T22:09:02.877Z,21.71
2022-07-29T22:11:30.669Z,21.75
2022-07-29T22:13:58.074Z,21.76
2022-07-29T22:16:26.027Z,21.77
2022-07-29T22:18:53.336Z,21.78
2022-07-29T22:21:20.578Z,21.75
2022-07-29T22:23:48.101Z,21.73
2022-07-29T22:26:15.433Z,21.75
2022-07-29T22:28:42.709Z,21.78
2022-07-29T22:31:10.348Z,21.86
2022-07-29T22:33:38.038Z,21.83
2022-07-29T22:36:05.694Z,21.72
2022-07-29T22:38:33.126Z,21.74
2022-07-29T22:41:00.716Z,21.66
2022-07-29T22:43:28.916Z,21.58
2022-07-29T22:45:56.368Z,21.53
2022-07-29T22:48:23.574Z,21.48
2022-07-29T22:50:50.788Z,21.52
2022-07-29T22:53:18.238Z,21.61
2022-07-29T22:55:45.844Z,21.58
2022-07-29T22:58:13.229Z,21.52
2022-07-29T23:00:41.349Z,21.42
2022-07-29T23:03:08.562Z,21.39
2022-07-29T23:05:36.016Z,21.25
2022-07-29T23:08:03.803Z,21.25
2022-07-29T23:10:31.155Z,21.20
2022-07-29T23:12:58.412Z,21.17
2022-07-29T23:15:25.937Z,21.12
2022-07-29T23:17:53.344Z,21.13
2022-07-29T23:20:20.706Z,21.06
2022-07-29T23:22:48.140Z,21.08
2022-07-29T23:25:15.464Z,21.16
2022-07-29T23:27:42.784Z,21.06
2022-07-29T23:30:10.887Z,21.06
2022-07-29T23:32:38.148Z,21.01
2022-07-29T23:35:07.110Z,20.94
2022-07-29T23:37:35.170Z,20.94
2022-07-29T23:40:02.665Z,20.91
2022-07-29T23:42:29.970Z,20.88
2022-07-29T23:44:57.523Z,20.89
2022-07-29T23:47:24.832Z,20.92
2022-07-29T23:49:52.218Z,20.84
2022-07-29T23:52:19.800Z,20.79
2022-07-29T23:54:47.252Z,20.86
2022-07-29T23:57:14.606Z,20.79
2022-07-29T23:59:42.190Z,20.82
